Ibai Ramírez

Olheiro-Chefe - Deportivo La Coruña
5 Dez 2027
Domingo
Processo

Personalidade

Adaptabilidade (20) Ambição (18) Controvérsia (5) Lealdade (1) Pressão (19) Profissionalismo (9) Espírito Esportivo (8) Temperamento (8)

Perfil

Estilo de Treinamento Democrático
Licença Nacional A
Determinação 13
Gestão de Pessoas 5
Motivação 6
Disciplina 13
Satisfação no Trabalho
100%
Fadiga
0%
Função Olheiro-Chefe
Salário 70.8K p/s
Contrato 14.03.2028

Desempenho

Comportamento Bom
Eficácia do Treinamento
31%
Desenvolvimento do Jogador
30%
Prevenção de Lesões
20%
Implementação Tática
20%

Eventos Recentes

Participou de uma reunião de recrutamento agora
Participou de uma reunião de recrutamento agora
Participou de uma reunião de recrutamento 7d atrás
Participou de uma reunião de recrutamento 7d atrás
Participou de uma reunião de recrutamento 7d atrás
Observou uma partida 7d atrás
Participou de uma reunião de recrutamento 14d atrás
Observou uma partida 14d atrás

Monitorando agora

135
Jogador Clube Status Habilidade Confiança Observado Última observação Último voto
Alejandro Leiva Patronato Ativo 90 / 104 40% 1 16.08.2027 -
Azizbek To'lqinbekov Bunyodkor Ativo 90 / 118 40% 1 16.08.2027 -
Gonçalo Oliveira Benfica Ativo 107 / 124 40% 4 02.06.2027 -
Josh Davidson Milton Keynes Dons Ativo 85 / 101 40% 1 02.06.2027 -
Nicolás Fernández Mercau FC Copenhagen Relatório pronto 134 / 134 67% 1 01.06.2027 -
Pedro de la Vega Columbus Crew Negociando 133 / 134 66% 1 01.06.2027 -
Rubén Sobrino Cultural Leonesa Perdido 117 / 116 62% 1 01.06.2027 -
José Pachuca Puebla Ativo 123 / 104 40% 2 31.05.2027 -
Jan Bürger Northampton Town Ativo 109 / 126 40% 2 31.05.2027 -
Santiago Murillo Alianza Petrolera Ativo 130 / 140 40% 6 30.05.2027 -
Ezra Mayers West Ham United Ativo 124 / 120 40% 3 30.05.2027 -
Alpha Touré FC Metz Ativo 111 / 119 40% 3 29.05.2027 -
Yusi Alavés Ativo 133 / 123 40% 4 29.05.2027 -
Germán Barbas Burgos Ativo 94 / 106 40% 6 28.05.2027 -
Sascha Britschgi AC Milan Ativo 125 / 135 40% 1 28.05.2027 -
Izan Merino Málaga Ativo 115 / 125 40% 4 27.05.2027 -
Toni Tamarit Alverca Ativo 113 / 116 40% 4 27.05.2027 -
Lucas Høgsberg RC Strasbourg Ativo 136 / 132 40% 1 26.05.2027 -
Martim Cunha Porto Ativo 101 / 110 40% 3 24.05.2027 -
Noah Nartey Olympique Lyonnais Ativo 125 / 144 40% 2 23.05.2027 -
Yassine Khalifi Charleroi Ativo 103 / 107 40% 1 23.05.2027 -
Yussif Saidu Zaragoza Ativo 126 / 122 40% 6 22.05.2027 -
Miguel Figueiredo Benfica Ativo 112 / 115 40% 3 19.05.2027 -
Samuel Lucero Defensa y Justicia Ativo 108 / 117 40% 2 19.05.2027 -
Caleb Yirenkyi Coventry City Ativo 142 / 140 40% 5 18.05.2027 -
Marco Oroná Antofagasta Ativo 101 / 97 40% 2 18.05.2027 -
Nahuel Leivas Montevideo City Torque Ativo 108 / 109 40% 1 17.05.2027 -
Kazunari Kita Real Sociedad Ativo 91 / 97 67% 10 16.05.2027 -
Tiago Freitas Benfica Ativo 114 / 114 40% 1 13.05.2027 -
James Bacca La Equidad Negociando 133 / 131 40% 3 08.05.2027 -
Finn Jeltsch VfB Stuttgart Ativo 135 / 143 40% 1 08.05.2027 -
Simone Kosijer Triestina Ativo 89 / 107 40% 3 07.05.2027 -
João Teixeira Porto Ativo 110 / 115 40% 2 05.05.2027 -
Enzo Koffi Olympique de Marseille Ativo 115 / 123 40% 1 05.05.2027 -
Bade Aluko Leicester City Ativo 115 / 123 40% 1 02.05.2027 -
Bongani Jali Free State Stars Ativo 101 / 104 40% 4 30.04.2027 -
Henrique Silva Santa Clara Ativo 104 / 117 40% 2 30.04.2027 -
Josh Acheampong Everton Ativo 132 / 142 40% 1 29.04.2027 -
Lucas Bergvall Tottenham Ativo 137 / 158 40% 1 27.04.2027 -
Salvador Blopá Sporting CP Ativo 118 / 122 40% 4 26.04.2027 -
Ivan Giraldo Valencia Ativo 129 / 121 40% 5 25.04.2027 -
Jenson Jones Walsall Ativo 99 / 93 40% 2 25.04.2027 -
Bernardo Lima Porto Ativo 103 / 114 40% 2 23.04.2027 -
Zane Albarus Shrewsbury Town Ativo 96 / 96 40% 3 22.04.2027 -
David Ozoh Derby County Ativo 125 / 131 40% 1 21.04.2027 -
Tommaso Cecotti Carpi Ativo 96 / 100 40% 1 21.04.2027 -
Pietro Reggiori Pro Patria Ativo 83 / 92 40% 3 15.04.2027 -
Lewis Miley Newcastle United Ativo 148 / 142 40% 10 10.04.2027 -
Marc Bernal Sevilla Ativo 144 / 154 40% 2 08.04.2027 -
Gustavo Albarracín Alavés Ativo 114 / 119 40% 1 08.04.2027 -
Olivier Leroux Mouscron Ativo 98 / 107 40% 2 07.04.2027 -
Christian Mawissa Monaco Ativo 123 / 124 40% 2 02.04.2027 -
Cheveyo Tsawa Club Brugge Ativo 116 / 132 40% 3 02.04.2027 -
Charlie Gray Fleetwood Town Ativo 91 / 92 40% 2 01.04.2027 -
Matvey Kislyak CSKA Moscow Ativo 136 / 149 40% 1 31.03.2027 -
Surprise Manthosi Polokwane City Ativo 105 / 106 40% 1 30.03.2027 -
Pau Navarro Villarreal Ativo 151 / 137 40% 3 27.03.2027 -
James Dornelly Peterborough United Ativo 95 / 100 40% 6 24.03.2027 -
Mattia Puzone Siracusa Ativo 96 / 110 40% 1 22.03.2027 -
Louis Leroux FC Nantes Ativo 133 / 136 40% 1 18.03.2027 -
Axel Frugone Athletic Bilbao Ativo 127 / 131 40% 1 18.03.2027 -
Joaquin Seys Club Brugge Ativo 134 / 125 40% 2 16.03.2027 -
Riley Owen Stevenage Ativo 108 / 101 40% 2 12.03.2027 -
Francis Gomez Cardiff City Ativo 96 / 110 40% 1 26.02.2027 -
Kamaldeen Atiemo Wa All Stars Ativo 82 / 93 40% 2 23.02.2027 -
Pau Cubarsí Real Sociedad Ativo 155 / 172 40% 2 22.02.2027 -
Nico O'Reilly Manchester City Ativo 150 / 158 40% 1 21.02.2027 -
Taras Mykhavko Dynamo Kyiv Ativo 110 / 140 40% 2 17.02.2027 -
Emmanuel Biumla Angers SCO Ativo 125 / 134 40% 1 14.02.2027 -
Leandro Martins Benfica Ativo 99 / 98 40% 1 11.02.2027 -
Ivan M'Bahia Clermont Foot Ativo 106 / 126 40% 1 04.02.2027 -
Armstrong Oko-Flex Levski Ativo 120 / 112 40% 1 18.01.2027 -
Pablo Durán Celta Ativo 125 / 142 40% 1 18.01.2027 -
Ricardo Pepi Mallorca Ativo 144 / 151 40% 1 05.01.2027 -
Bitello SC Freiburg Negociando 135 / 135 68% 1 01.01.2027 -
Sampson Dweh Mallorca Negociando 133 / 134 66% 1 01.01.2027 -
Toni Fruk Anderlecht Negociando 132 / 133 89% 1 01.01.2027 -
Sergi Guardiola Córdoba Ativo 119 / 109 58% 1 01.01.2027 -
Ayoub Oufkir AZ Ativo 127 / 137 40% 1 01.01.2027 -
George Brown Sheffield Wednesday Ativo 103 / 112 40% 1 01.01.2027 -
Jonathan Dubasin Osasuna Ativo 133 / 150 40% 1 30.12.2026 -
Mohamed-Ali Cho Hull City Ativo 141 / 138 40% 1 30.12.2026 -
Erik Lira Cruz Azul Ativo 151 / 142 40% 1 30.12.2026 -
Diego Lainez Tigres Ativo 129 / 140 40% 2 27.12.2026 -
Matt O'Riley Brighton Ativo 143 / 150 40% 1 27.12.2026 -
Justo Giani Umraniyespor Ativo 125 / 121 40% 4 25.12.2026 -
Cody Gakpo Liverpool Ativo 152 / 162 40% 3 24.12.2026 -
Jorge Pascual Granada Ativo 130 / 127 40% 2 24.12.2026 -
Rodrigo Muniz Fulham Ativo 133 / 142 40% 1 23.12.2026 -
Germán Valera Elche Ativo 137 / 131 40% 1 23.12.2026 -
Diego López Valencia Ativo 149 / 134 40% 1 22.12.2026 -
Joe Gelhardt Hull City Ativo 139 / 128 40% 1 21.12.2026 -
Gaspar Gijón Ativo 127 / 144 40% 1 21.12.2026 Mais informações
Mexx Meerdink AZ Ativo 123 / 129 40% 1 18.12.2026 -
Alejandro Piedrahita Deportivo Pereira Ativo 127 / 119 40% 2 17.12.2026 -
Andre Brooks Sheffield United Ativo 133 / 126 40% 1 16.12.2026 -
Jeremy Márquez Cruz Azul Ativo 118 / 130 40% 1 16.12.2026 -
Pau Víctor Braga Ativo 147 / 129 40% 4 12.12.2026 -
Etiosa Ighodaro Kaizer Chiefs Ativo 118 / 106 40% 1 11.12.2026 -
Chupete Málaga Ativo 119 / 132 40% 1 11.12.2026 -
Ramiro Ruiz Rodríguez Atlético Tucumán Ativo 125 / 124 40% 1 08.12.2026 -
Tyrhys Dolan Espanyol Ativo 127 / 127 40% 2 07.12.2026 -
Duk Atlas Ativo 118 / 124 40% 1 07.12.2026 -
Aimar Osasuna Ativo 148 / 139 40% 2 06.12.2026 -
Andrés Martín Racing Santander Ativo 147 / 140 40% 3 05.12.2026 -
Carlos Álvarez Club America Ativo 137 / 134 40% 2 05.12.2026 -
Jonathan Dellarossa Lokomotiv Plovdiv Ativo 109 / 135 40% 2 03.12.2026 -
Sorriso Famalicao Ativo 123 / 138 40% 1 29.11.2026 -
Bryan Gil Girona Ativo 142 / 146 40% 1 29.11.2026 -
Roberto Fernández Braga Ativo 144 / 149 40% 1 25.11.2026 Mais informações
Xavi Simons Tottenham Ativo 166 / 159 40% 1 25.11.2026 -
Alexander Díaz Deportivo Riestra Ativo 127 / 115 40% 1 20.11.2026 -
Nicolás Cordero Aldosivi Ativo 123 / 125 40% 1 19.11.2026 -
Alexis Cuello San Lorenzo Ativo 117 / 124 40% 2 18.11.2026 -
Brayan Moreno Santa Fe Ativo 108 / 116 40% 1 18.11.2026 -
Enzo Loiodice Olympique Lyonnais Ativo 121 / 130 40% 1 17.11.2026 -
Sota Kitano Red Bull Salzburg Ativo 117 / 126 40% 1 14.11.2026 -
José Paradela Las Palmas Negociando 132 / 144 40% 1 13.11.2026 -
Tiago Palacios Estudiantes Ativo 136 / 123 40% 1 13.11.2026 -
Marcus Edwards Burnley Ativo 148 / 140 40% 1 11.11.2026 -
Christantus Uche Getafe Ativo 143 / 131 40% 2 09.11.2026 -
Karim Adeyemi Barcelona Ativo 158 / 143 40% 1 09.11.2026 -
Matías Contrera Hrvatski Dragovoljac Ativo 95 / 87 40% 1 07.11.2026 -
Wilson Isidor Sunderland Ativo 132 / 141 40% 1 06.11.2026 -
Alex Luna Instituto Ativo 123 / 133 40% 1 06.11.2026 -
Juanmi Latasa Valladolid Ativo 121 / 122 40% 1 02.11.2026 -
Jorrel Hato Chelsea Ativo 143 / 157 40% 1 05.10.2026 -
Mateo Mendoza Godoy Cruz Ativo 127 / 130 40% 1 11.09.2026 -
Ignacio Perruzzi San Lorenzo Ativo 118 / 119 40% 2 10.09.2026 -
Demián Troya Platense Ativo 109 / 106 40% 1 10.09.2026 -
Ignacio Ovando Rosario Central Ativo 98 / 111 40% 1 09.09.2026 -
Hugo Rojas Instituto Ativo 109 / 102 40% 1 09.09.2026 -
Ian Garguez Palestino Ativo 109 / 105 40% 1 01.09.2026 -
Dylan Gorosito Boca Juniors Ativo 106 / 126 40% 1 25.08.2026 -
Kobbie Mainoo Manchester United Ativo 156 / 149 40% 1 25.08.2026 -